createdAt,value
2023-04-05T00:01:12.197Z,6.60
2023-04-05T00:03:42.712Z,6.60
2023-04-05T00:06:13.205Z,6.50
2023-04-05T00:08:41.372Z,6.50
2023-04-05T00:11:09.433Z,6.50
2023-04-05T00:13:37.529Z,6.50
2023-04-05T00:16:06.056Z,6.40
2023-04-05T00:18:35.084Z,6.40
2023-04-05T00:21:05.039Z,6.40
2023-04-05T00:23:38.600Z,6.40
2023-04-05T00:26:06.923Z,6.30
2023-04-05T00:28:36.050Z,6.30
2023-04-05T00:31:05.303Z,6.30
2023-04-05T00:33:33.371Z,6.30
2023-04-05T00:36:12.234Z,6.20
2023-04-05T00:38:41.161Z,6.20
2023-04-05T00:41:09.580Z,6.20
2023-04-05T00:43:37.669Z,6.20
2023-04-05T00:46:07.020Z,6.20
2023-04-05T00:48:35.974Z,6.20
2023-04-05T00:51:04.582Z,6.20
2023-04-05T00:53:34.009Z,6.20
2023-04-05T00:56:03.056Z,6.10
2023-04-05T00:58:31.997Z,6.10
2023-04-05T01:01:05.488Z,6.10
2023-04-05T01:03:35.867Z,6.10
2023-04-05T01:06:17.352Z,6.10
2023-04-05T01:08:57.005Z,6.00
2023-04-05T01:11:27.126Z,6.00
2023-04-05T01:13:59.909Z,6.00
2023-04-05T01:16:28.326Z,6.00
2023-04-05T01:18:56.893Z,6.00
2023-04-05T01:22:13.931Z,6.00
2023-04-05T01:25:11.905Z,5.90
2023-04-05T01:28:11.874Z,5.90
2023-04-05T01:30:45.388Z,5.90
2023-04-05T01:33:20.108Z,5.80
2023-04-05T01:35:53.669Z,5.80
2023-04-05T01:38:26.033Z,5.80
2023-04-05T01:40:54.663Z,5.70
2023-04-05T01:43:22.706Z,5.70
2023-04-05T01:45:52.126Z,5.70
2023-04-05T01:48:20.276Z,5.60
2023-04-05T01:50:48.306Z,5.60
2023-04-05T01:53:16.347Z,5.60
2023-04-05T01:55:44.380Z,5.50
2023-04-05T01:58:12.403Z,5.60
2023-04-05T02:00:40.657Z,5.50
2023-04-05T02:03:10.468Z,5.50
2023-04-05T02:05:38.566Z,5.50
2023-04-05T02:08:06.616Z,5.50
2023-04-05T02:10:34.630Z,5.50
2023-04-05T02:13:02.685Z,5.40
2023-04-05T02:15:31.076Z,5.40
2023-04-05T02:18:02.127Z,5.40
2023-04-05T02:20:33.074Z,5.30
2023-04-05T02:23:02.010Z,5.30
2023-04-05T02:25:30.280Z,5.30
2023-04-05T02:27:58.338Z,5.20
2023-04-05T02:30:28.999Z,5.20
2023-04-05T02:32:57.174Z,5.20
2023-04-05T02:35:25.494Z,5.20
2023-04-05T02:37:55.034Z,5.20
2023-04-05T02:40:23.233Z,5.20
2023-04-05T02:42:51.306Z,5.10
2023-04-05T02:45:19.638Z,5.10
2023-04-05T02:47:47.777Z,5.10
2023-04-05T02:50:20.417Z,5.10
2023-04-05T02:52:48.690Z,5.10
2023-04-05T02:55:18.352Z,5.10
2023-04-05T02:57:46.988Z,5.00
2023-04-05T03:00:16.338Z,5.00
2023-04-05T03:02:44.397Z,4.90
2023-04-05T03:05:13.962Z,4.90
2023-04-05T03:07:42.723Z,4.90
2023-04-05T03:10:10.791Z,4.80
2023-04-05T03:12:40.246Z,4.80
2023-04-05T03:15:09.689Z,4.80
2023-04-05T03:17:38.114Z,4.80
2023-04-05T03:20:08.978Z,4.80
2023-04-05T03:22:37.288Z,4.80
2023-04-05T03:25:06.217Z,4.80
2023-04-05T03:27:34.308Z,4.70
2023-04-05T03:30:03.792Z,4.70
2023-04-05T03:32:32.114Z,4.70
2023-04-05T03:35:00.163Z,4.60
2023-04-05T03:37:28.221Z,4.70
2023-04-05T03:39:56.290Z,4.70
2023-04-05T03:42:24.382Z,4.70
2023-04-05T03:44:54.321Z,4.60
2023-04-05T03:47:23.742Z,4.60
2023-04-05T03:49:52.240Z,4.60
2023-04-05T03:52:20.326Z,4.60
2023-04-05T03:54:48.375Z,4.60
2023-04-05T03:57:16.646Z,4.60
2023-04-05T03:59:44.659Z,4.60
2023-04-05T04:02:12.813Z,4.50
2023-04-05T04:04:42.278Z,4.50
2023-04-05T04:07:10.509Z,4.50
2023-04-05T04:09:38.566Z,4.50
2023-04-05T04:12:06.989Z,4.50
2023-04-05T04:14:36.060Z,4.40
2023-04-05T04:17:04.114Z,4.40
2023-04-05T04:19:32.296Z,4.40
2023-04-05T04:22:02.553Z,4.40
2023-04-05T04:24:32.593Z,4.40
2023-04-05T04:27:00.684Z,4.40
2023-04-05T04:29:31.370Z,4.40
2023-04-05T04:32:01.062Z,4.40
2023-04-05T04:34:30.591Z,4.40
2023-04-05T04:37:01.514Z,4.40
2023-04-05T04:39:32.824Z,4.40
2023-04-05T04:42:01.396Z,4.40
2023-04-05T04:44:31.264Z,4.40
2023-04-05T04:46:59.435Z,4.40
2023-04-05T04:49:28.346Z,4.40
2023-04-05T04:51:58.564Z,4.30
2023-04-05T04:54:28.755Z,4.40
2023-04-05T04:56:58.138Z,4.30
2023-04-05T04:59:26.396Z,4.30
2023-04-05T05:01:54.474Z,4.30
2023-04-05T05:04:22.866Z,4.30
2023-04-05T05:06:52.574Z,4.30
2023-04-05T05:09:20.727Z,4.30
2023-04-05T05:11:48.787Z,4.30
2023-04-05T05:14:18.196Z,4.30
2023-04-05T05:16:46.288Z,4.30
2023-04-05T05:19:14.376Z,4.30
2023-04-05T05:21:42.400Z,4.30
2023-04-05T05:24:10.418Z,4.20
2023-04-05T05:26:38.757Z,4.20
2023-04-05T05:29:06.798Z,4.20
2023-04-05T05:31:36.536Z,4.30
2023-04-05T05:34:04.768Z,4.30
2023-04-05T05:36:33.596Z,4.30
2023-04-05T05:39:01.613Z,4.30
2023-04-05T05:41:29.660Z,4.30
2023-04-05T05:43:57.722Z,4.30
2023-04-05T05:46:26.807Z,4.30
2023-04-05T05:48:56.783Z,4.30
2023-04-05T05:51:24.864Z,4.30
2023-04-05T05:53:53.085Z,4.30
2023-04-05T05:56:21.105Z,4.40
2023-04-05T05:58:49.310Z,4.40
2023-04-05T06:01:17.437Z,4.40
2023-04-05T06:03:45.913Z,4.40
2023-04-05T06:06:15.665Z,4.40
2023-04-05T06:08:43.717Z,4.50
2023-04-05T06:11:18.874Z,4.50
2023-04-05T06:13:46.960Z,4.60
2023-04-05T06:16:15.040Z,4.60
2023-04-05T06:18:43.209Z,4.60
2023-04-05T06:21:11.275Z,4.70
2023-04-05T06:23:41.927Z,4.70
2023-04-05T06:26:09.997Z,4.70
2023-04-05T06:28:38.030Z,4.90
2023-04-05T06:31:06.318Z,4.90
2023-04-05T06:33:34.383Z,5.00
2023-04-05T06:36:02.479Z,5.10
2023-04-05T06:38:30.527Z,5.10
2023-04-05T06:40:59.947Z,5.20
2023-04-05T06:43:27.951Z,5.30
2023-04-05T06:45:57.709Z,5.30
2023-04-05T06:48:25.967Z,5.40
2023-04-05T06:50:58.801Z,5.40
2023-04-05T06:53:27.917Z,5.50
2023-04-05T06:55:56.497Z,5.60
2023-04-05T06:58:27.361Z,5.70
2023-04-05T07:00:55.764Z,5.80
2023-04-05T07:03:23.819Z,5.90
2023-04-05T07:05:53.308Z,5.90
2023-04-05T07:08:21.939Z,6.10
2023-04-05T07:10:50.568Z,6.10
2023-04-05T07:13:19.069Z,6.20
2023-04-05T07:15:48.524Z,6.30
2023-04-05T07:18:16.745Z,6.40
2023-04-05T07:20:49.324Z,6.50
2023-04-05T07:23:18.306Z,6.60
2023-04-05T07:25:46.485Z,6.70
2023-04-05T07:28:14.517Z,6.80
2023-04-05T07:30:42.732Z,6.90
2023-04-05T07:33:12.923Z,7.00
2023-04-05T07:35:41.019Z,7.10
2023-04-05T07:38:09.598Z,7.20
2023-04-05T07:40:37.717Z,7.30
2023-04-05T07:43:05.958Z,7.40
2023-04-05T07:45:34.023Z,7.50
2023-04-05T07:48:02.062Z,7.60
2023-04-05T07:50:32.155Z,7.70
2023-04-05T07:53:00.196Z,7.80
2023-04-05T07:55:28.415Z,7.90
2023-04-05T07:57:56.625Z,8.00
2023-04-05T08:00:24.959Z,8.10
2023-04-05T08:02:53.025Z,8.20
2023-04-05T08:05:21.185Z,8.30
2023-04-05T08:07:50.643Z,8.30
2023-04-05T08:10:18.858Z,8.50
2023-04-05T08:12:46.905Z,8.50
2023-04-05T08:15:14.965Z,8.60
2023-04-05T08:17:43.104Z,8.70
2023-04-05T08:20:11.982Z,8.80
2023-04-05T08:22:40.017Z,8.80
2023-04-05T08:25:10.603Z,8.90
2023-04-05T08:27:38.657Z,9.00
2023-04-05T08:30:08.160Z,9.00
2023-04-05T08:32:36.448Z,9.10
2023-04-05T08:35:04.768Z,9.20
2023-04-05T08:37:35.371Z,9.20
2023-04-05T08:40:03.689Z,9.30
2023-04-05T08:42:37.761Z,9.30
2023-04-05T08:45:10.240Z,9.40
2023-04-05T08:47:39.125Z,9.40
2023-04-05T08:50:08.398Z,9.50
2023-04-05T08:52:39.417Z,9.60
2023-04-05T08:55:08.488Z,9.60
2023-04-05T08:57:40.522Z,9.60
2023-04-05T09:00:09.435Z,9.70
2023-04-05T09:02:38.536Z,9.70
2023-04-05T09:05:11.884Z,9.80
2023-04-05T09:07:40.931Z,9.80
2023-04-05T09:10:10.421Z,9.90
2023-04-05T09:12:40.593Z,9.90
2023-04-05T09:15:09.409Z,10.00
2023-04-05T09:17:40.439Z,10.00
2023-04-05T09:20:09.111Z,10.10
2023-04-05T09:22:45.291Z,10.10
2023-04-05T09:25:33.610Z,10.20
2023-04-05T09:28:04.006Z,10.20
2023-04-05T09:30:32.833Z,10.30
2023-04-05T09:33:01.051Z,10.40
2023-04-05T09:35:30.749Z,10.40
2023-04-05T09:38:00.453Z,10.40
2023-04-05T09:40:42.877Z,10.50
2023-04-05T09:43:13.383Z,10.50
2023-04-05T09:45:42.613Z,10.60
2023-04-05T09:48:10.957Z,10.70
2023-04-05T09:50:39.321Z,10.70
2023-04-05T09:53:09.618Z,10.80
2023-04-05T09:55:38.379Z,10.80
2023-04-05T09:58:06.486Z,10.90
2023-04-05T10:00:38.030Z,10.90
2023-04-05T10:03:06.301Z,11.00
2023-04-05T10:05:34.450Z,11.00
2023-04-05T10:08:03.056Z,11.10
2023-04-05T10:10:37.388Z,11.10
2023-04-05T10:13:07.105Z,11.10
2023-04-05T10:15:37.076Z,11.20
2023-04-05T10:18:11.601Z,11.20
2023-04-05T10:20:41.657Z,11.30
2023-04-05T10:23:13.386Z,11.30
2023-04-05T10:25:54.358Z,11.40
2023-04-05T10:28:31.547Z,11.40
2023-04-05T10:31:11.329Z,11.50
2023-04-05T10:33:42.852Z,11.50
2023-04-05T10:36:19.301Z,11.50
2023-04-05T10:39:01.883Z,11.50
2023-04-05T10:41:35.085Z,11.60
2023-04-05T10:44:12.085Z,11.60
2023-04-05T10:46:47.377Z,11.60
2023-04-05T10:49:23.756Z,11.60
2023-04-05T10:51:52.435Z,11.60
2023-04-05T10:54:21.125Z,11.60
2023-04-05T10:56:49.941Z,11.60
2023-04-05T10:59:18.849Z,11.60
2023-04-05T11:01:49.450Z,11.60
2023-04-05T11:04:18.692Z,11.60
2023-04-05T11:06:48.157Z,11.60
2023-04-05T11:09:18.640Z,11.60
2023-04-05T11:11:47.560Z,11.60
2023-04-05T11:14:23.332Z,11.60
2023-04-05T11:16:56.430Z,11.60
2023-04-05T11:19:53.184Z,11.60
2023-04-05T11:22:29.375Z,11.60
2023-04-05T11:24:59.468Z,11.60
2023-04-05T11:27:28.516Z,11.60
2023-04-05T11:29:57.494Z,11.60
2023-04-05T11:32:42.823Z,11.60
2023-04-05T11:35:14.886Z,11.70
2023-04-05T11:38:06.623Z,11.70
2023-04-05T11:40:35.815Z,11.70
2023-04-05T11:43:06.043Z,11.80
2023-04-05T11:45:36.775Z,11.80
2023-04-05T11:48:08.600Z,11.80
2023-04-05T11:50:38.299Z,11.80
2023-04-05T11:53:12.932Z,11.80
2023-04-05T11:55:42.147Z,11.80
2023-04-05T11:58:14.508Z,11.80
2023-04-05T12:00:42.773Z,11.80
2023-04-05T12:03:14.680Z,11.80
2023-04-05T12:05:52.127Z,11.80
2023-04-05T12:08:21.508Z,11.80
2023-04-05T12:10:56.957Z,11.90
2023-04-05T12:13:29.829Z,11.90
2023-04-05T12:15:59.725Z,11.90
2023-04-05T12:18:31.193Z,11.90
2023-04-05T12:20:59.825Z,12.00
2023-04-05T12:23:28.075Z,11.90
2023-04-05T12:25:57.218Z,11.90
2023-04-05T12:28:25.739Z,11.90
2023-04-05T12:30:57.117Z,11.90
2023-04-05T12:33:30.293Z,11.90
2023-04-05T12:35:58.764Z,11.90
2023-04-05T12:38:28.288Z,12.00
2023-04-05T12:41:00.383Z,12.00
2023-04-05T12:43:38.769Z,12.00
2023-04-05T12:46:10.383Z,12.00
2023-04-05T12:48:40.242Z,12.00
2023-04-05T12:51:16.126Z,12.00
2023-04-05T12:53:47.270Z,12.00
2023-04-05T12:56:16.855Z,12.10
2023-04-05T12:58:45.235Z,12.10
2023-04-05T13:01:13.300Z,12.20
2023-04-05T13:03:46.853Z,12.20
2023-04-05T13:06:16.255Z,12.20
2023-04-05T13:08:44.283Z,12.20
2023-04-05T13:11:12.710Z,12.20
2023-04-05T13:13:40.744Z,12.10
2023-04-05T13:16:08.979Z,12.10
2023-04-05T13:18:37.225Z,12.20
2023-04-05T13:21:09.270Z,12.20
2023-04-05T13:23:37.982Z,12.10
2023-04-05T13:26:06.873Z,12.10
2023-04-05T13:28:35.424Z,12.10
2023-04-05T13:31:06.305Z,12.10
2023-04-05T13:33:34.752Z,12.10
2023-04-05T13:36:02.864Z,12.10
2023-04-05T13:38:32.279Z,12.10
2023-04-05T13:41:00.397Z,12.10
2023-04-05T13:43:28.516Z,12.20
2023-04-05T13:45:56.630Z,12.10
2023-04-05T13:48:24.712Z,12.20
2023-04-05T13:50:52.770Z,12.20
2023-04-05T13:53:20.804Z,12.20
2023-04-05T13:55:50.206Z,12.20
2023-04-05T13:58:18.256Z,12.20
2023-04-05T14:00:47.468Z,12.20
2023-04-05T14:03:15.778Z,12.20
2023-04-05T14:05:43.992Z,12.20
2023-04-05T14:08:12.066Z,12.20
2023-04-05T14:10:40.505Z,12.30
2023-04-05T14:13:11.245Z,12.30
2023-04-05T14:15:39.968Z,12.30
2023-04-05T14:18:08.267Z,12.30
2023-04-05T14:20:36.409Z,12.30
2023-04-05T14:23:04.889Z,12.30
2023-04-05T14:25:33.017Z,12.30
2023-04-05T14:28:01.186Z,12.30
2023-04-05T14:30:30.813Z,12.30
2023-04-05T14:32:58.989Z,12.20
2023-04-05T14:35:27.211Z,12.20
2023-04-05T14:37:55.344Z,12.20
2023-04-05T14:40:23.437Z,12.20
2023-04-05T14:42:51.540Z,12.20
2023-04-05T14:45:19.738Z,12.10
2023-04-05T14:47:49.245Z,12.10
2023-04-05T14:50:17.446Z,12.10
2023-04-05T14:52:45.607Z,12.10
2023-04-05T14:55:14.116Z,12.10
2023-04-05T14:57:42.448Z,12.10
2023-04-05T15:00:12.450Z,12.10
2023-04-05T15:02:40.750Z,12.10
2023-04-05T15:05:11.008Z,12.10
2023-04-05T15:07:39.116Z,12.10
2023-04-05T15:10:07.906Z,12.10
2023-04-05T15:12:36.163Z,12.10
2023-04-05T15:15:04.399Z,12.10
2023-04-05T15:17:32.545Z,12.10
2023-04-05T15:20:00.672Z,12.20
2023-04-05T15:22:30.220Z,12.20
2023-04-05T15:24:59.786Z,12.20
2023-04-05T15:27:27.887Z,12.20
2023-04-05T15:29:56.096Z,12.20
2023-04-05T15:32:24.202Z,12.20
2023-04-05T15:34:52.285Z,12.20
2023-04-05T15:37:20.411Z,12.20
2023-04-05T15:39:49.886Z,12.20
2023-04-05T15:42:18.634Z,12.20
2023-04-05T15:44:46.713Z,12.20
2023-04-05T15:47:14.864Z,12.20
2023-04-05T15:49:43.460Z,12.20
2023-04-05T15:52:11.990Z,12.20
2023-04-05T15:54:40.287Z,12.20
2023-04-05T15:57:09.722Z,12.20
2023-04-05T15:59:38.145Z,12.20
2023-04-05T16:02:06.561Z,12.20
2023-04-05T16:04:34.652Z,12.10
2023-04-05T16:07:02.763Z,12.10
2023-04-05T16:09:31.004Z,12.10
2023-04-05T16:11:59.246Z,12.10
2023-04-05T16:14:28.886Z,12.10
2023-04-05T16:16:56.994Z,12.10
2023-04-05T16:19:25.074Z,12.00
2023-04-05T16:21:53.725Z,12.00
2023-04-05T16:24:21.844Z,12.00
2023-04-05T16:26:50.337Z,12.00
2023-04-05T16:29:18.685Z,12.00
2023-04-05T16:31:48.217Z,12.00
2023-04-05T16:34:16.672Z,12.00
2023-04-05T16:36:44.792Z,12.00
2023-04-05T16:39:12.951Z,12.00
2023-04-05T16:41:41.084Z,12.00
2023-04-05T16:44:09.326Z,11.90
2023-04-05T16:46:37.610Z,11.90
2023-04-05T16:49:07.149Z,11.90
2023-04-05T16:51:36.443Z,11.90
2023-04-05T16:54:04.784Z,11.90
2023-04-05T16:56:32.870Z,11.90
2023-04-05T16:59:01.300Z,11.90
2023-04-05T17:01:30.490Z,11.90
2023-04-05T17:03:59.991Z,11.90
2023-04-05T17:06:29.801Z,11.80
2023-04-05T17:08:57.912Z,11.90
2023-04-05T17:11:28.261Z,11.90
2023-04-05T17:13:57.588Z,11.90
2023-04-05T17:16:25.937Z,11.80
2023-04-05T17:18:54.081Z,11.80
2023-04-05T17:21:22.841Z,11.80
2023-04-05T17:23:52.371Z,11.80
2023-04-05T17:26:23.096Z,11.80
2023-04-05T17:28:51.203Z,11.70
2023-04-05T17:31:20.273Z,11.70
2023-04-05T17:33:49.417Z,11.70
2023-04-05T17:36:17.794Z,11.70
2023-04-05T17:38:45.997Z,11.70
2023-04-05T17:41:15.506Z,11.70
2023-04-05T17:43:43.586Z,11.60
2023-04-05T17:46:14.019Z,11.60
2023-04-05T17:48:42.311Z,11.60
2023-04-05T17:51:10.669Z,11.60
2023-04-05T17:53:38.761Z,11.50
2023-04-05T17:56:07.141Z,11.50
2023-04-05T17:58:36.599Z,11.50
2023-04-05T18:01:04.817Z,11.40
2023-04-05T18:03:33.021Z,11.40
2023-04-05T18:06:01.184Z,11.40
2023-04-05T18:08:30.281Z,11.30
2023-04-05T18:10:59.732Z,11.30
2023-04-05T18:13:28.912Z,11.20
2023-04-05T18:15:59.842Z,11.20
2023-04-05T18:18:28.619Z,11.20
2023-04-05T18:20:57.864Z,11.10
2023-04-05T18:23:25.951Z,11.00
2023-04-05T18:25:54.993Z,10.90
2023-04-05T18:28:23.835Z,10.90
2023-04-05T18:30:52.940Z,10.90
2023-04-05T18:33:23.117Z,10.80
2023-04-05T18:35:51.605Z,10.70
2023-04-05T18:38:20.296Z,10.70
2023-04-05T18:40:48.741Z,10.60
2023-04-05T18:43:19.241Z,10.60
2023-04-05T18:45:47.371Z,10.50
2023-04-05T18:48:15.498Z,10.40
2023-04-05T18:50:44.994Z,10.40
2023-04-05T18:53:13.075Z,10.30
2023-04-05T18:55:41.265Z,10.30
2023-04-05T18:58:09.421Z,10.20
2023-04-05T19:00:37.521Z,10.20
2023-04-05T19:03:05.862Z,10.10
2023-04-05T19:05:34.031Z,10.10
2023-04-05T19:08:03.531Z,10.00
2023-04-05T19:10:32.378Z,10.00
2023-04-05T19:13:00.458Z,10.00
2023-04-05T19:15:28.531Z,9.90
2023-04-05T19:17:58.170Z,9.80
2023-04-05T19:20:26.308Z,9.80
2023-04-05T19:22:54.383Z,9.80
2023-04-05T19:25:23.846Z,9.70
2023-04-05T19:27:51.915Z,9.70
2023-04-05T19:30:20.221Z,9.60
2023-04-05T19:32:48.375Z,9.60
2023-04-05T19:35:16.512Z,9.50
2023-04-05T19:37:44.636Z,9.50
2023-04-05T19:40:12.857Z,9.40
2023-04-05T19:42:47.388Z,9.40
2023-04-05T19:45:21.998Z,9.40
2023-04-05T19:47:50.126Z,9.30
2023-04-05T19:50:47.216Z,9.30
2023-04-05T19:53:39.402Z,9.20
2023-04-05T19:56:15.159Z,9.20
2023-04-05T19:58:44.974Z,9.20
2023-04-05T20:01:13.117Z,9.20
2023-04-05T20:03:42.456Z,9.10
2023-04-05T20:06:11.898Z,9.00
2023-04-05T20:08:41.341Z,9.00
2023-04-05T20:11:11.867Z,8.90
2023-04-05T20:13:45.186Z,8.80
2023-04-05T20:16:14.524Z,8.80
2023-04-05T20:18:47.132Z,8.70
2023-04-05T20:21:16.492Z,8.70
2023-04-05T20:23:45.464Z,8.70
2023-04-05T20:26:15.018Z,8.60
2023-04-05T20:28:50.012Z,8.60
2023-04-05T20:31:21.802Z,8.50
2023-04-05T20:33:52.517Z,8.50
2023-04-05T20:36:22.271Z,8.40
2023-04-05T20:38:51.096Z,8.40
2023-04-05T20:41:20.810Z,8.30
2023-04-05T20:43:50.277Z,8.30
2023-04-05T20:46:18.497Z,8.30
2023-04-05T20:48:46.849Z,8.30
2023-04-05T20:51:16.249Z,8.30
2023-04-05T20:53:44.360Z,8.20
2023-04-05T20:56:13.213Z,8.20
2023-04-05T20:58:42.059Z,8.20
2023-04-05T21:01:11.879Z,8.10
2023-04-05T21:03:41.738Z,8.10
2023-04-05T21:06:11.341Z,8.10
2023-04-05T21:08:41.237Z,8.10
2023-04-05T21:11:10.755Z,8.00
2023-04-05T21:13:39.128Z,8.00
2023-04-05T21:16:07.919Z,8.00
2023-04-05T21:18:37.617Z,7.90
2023-04-05T21:21:06.296Z,7.90
2023-04-05T21:23:35.157Z,7.90
2023-04-05T21:26:04.367Z,7.80
2023-04-05T21:28:32.760Z,7.80
2023-04-05T21:31:00.962Z,7.80
2023-04-05T21:33:29.153Z,7.80
2023-04-05T21:35:58.672Z,7.70
2023-04-05T21:38:27.165Z,7.70
2023-04-05T21:40:55.604Z,7.70
2023-04-05T21:43:23.892Z,7.70
2023-04-05T21:45:52.915Z,7.60
2023-04-05T21:48:21.262Z,7.70
2023-04-05T21:50:49.373Z,7.60
2023-04-05T21:53:18.893Z,7.60
2023-04-05T21:55:46.969Z,7.50
2023-04-05T21:58:15.041Z,7.50
2023-04-05T22:00:43.163Z,7.50
2023-04-05T22:03:11.385Z,7.40
2023-04-05T22:05:39.568Z,7.40
2023-04-05T22:08:08.765Z,7.70
2023-04-05T22:10:39.596Z,8.10
2023-04-05T22:13:07.687Z,8.40
2023-04-05T22:15:35.855Z,8.70
2023-04-05T22:18:05.439Z,8.70
2023-04-05T22:20:33.688Z,8.70
2023-04-05T22:23:01.789Z,8.60
2023-04-05T22:25:29.901Z,8.50
2023-04-05T22:28:00.719Z,8.30
2023-04-05T22:30:33.632Z,8.20
2023-04-05T22:33:09.265Z,8.00
2023-04-05T22:35:37.404Z,7.90
2023-04-05T22:38:05.618Z,7.80
2023-04-05T22:40:33.719Z,7.60
2023-04-05T22:43:03.247Z,7.50
2023-04-05T22:45:31.327Z,7.40
2023-04-05T22:47:59.409Z,7.30
2023-04-05T22:50:27.525Z,7.30
2023-04-05T22:52:55.589Z,7.20
2023-04-05T22:55:23.693Z,7.20
2023-04-05T22:57:52.131Z,7.10
2023-04-05T23:00:21.700Z,7.10
2023-04-05T23:02:49.804Z,7.10
2023-04-05T23:05:18.060Z,7.10
2023-04-05T23:07:46.144Z,7.00
2023-04-05T23:10:14.281Z,7.00
2023-04-05T23:12:42.369Z,7.00
2023-04-05T23:15:11.463Z,6.90
2023-04-05T23:17:41.074Z,6.90
2023-04-05T23:20:09.917Z,6.80
2023-04-05T23:22:38.000Z,6.80
2023-04-05T23:25:07.085Z,6.80
2023-04-05T23:27:35.300Z,6.70
2023-04-05T23:30:03.409Z,6.70
2023-04-05T23:32:31.522Z,6.60
2023-04-05T23:35:01.063Z,6.60
2023-04-05T23:37:29.142Z,6.50
2023-04-05T23:39:57.218Z,6.50
2023-04-05T23:42:25.558Z,6.50
2023-04-05T23:44:53.653Z,6.40
2023-04-05T23:47:21.772Z,6.40
2023-04-05T23:49:49.839Z,6.40
2023-04-05T23:52:19.300Z,6.30
2023-04-05T23:54:47.416Z,6.30
2023-04-05T23:57:15.770Z,6.30
2023-04-05T23:59:43.888Z,6.20
